createdAt,value
2019-02-02T00:01:26.299Z,98.30
2019-02-02T00:03:56.413Z,96.63
2019-02-02T00:06:26.521Z,100.45
2019-02-02T00:08:56.602Z,98.97
2019-02-02T00:11:26.714Z,96.25
2019-02-02T00:13:56.881Z,102.60
2019-02-02T00:16:26.981Z,99.85
2019-02-02T00:18:57.060Z,100.75
2019-02-02T00:21:27.160Z,102.95
2019-02-02T00:23:57.234Z,109.22
2019-02-02T00:26:27.339Z,108.50
2019-02-02T00:28:57.503Z,98.95
2019-02-02T00:31:27.635Z,99.25
2019-02-02T00:33:57.807Z,105.07
2019-02-02T00:36:27.892Z,107.00
2019-02-02T00:38:57.968Z,112.20
2019-02-02T00:41:28.203Z,118.40
2019-02-02T00:43:58.293Z,111.97
2019-02-02T00:46:28.530Z,111.08
2019-02-02T00:48:58.622Z,107.07
2019-02-02T00:51:28.698Z,106.97
2019-02-02T00:53:58.808Z,104.65
2019-02-02T00:56:28.886Z,100.72
2019-02-02T00:58:58.983Z,105.87
2019-02-02T01:01:29.060Z,111.12
2019-02-02T01:03:59.157Z,100.10
2019-02-02T01:06:29.252Z,105.67
2019-02-02T01:08:59.351Z,104.23
2019-02-02T01:11:29.440Z,114.17
2019-02-02T01:13:59.530Z,117.25
2019-02-02T01:16:29.618Z,119.20
2019-02-02T01:18:59.730Z,117.37
2019-02-02T01:21:29.817Z,112.97
2019-02-02T01:24:00.093Z,118.55
2019-02-02T01:26:30.172Z,115.77
2019-02-02T01:29:00.275Z,113.45
2019-02-02T01:31:30.358Z,118.22
2019-02-02T01:34:00.462Z,119.33
2019-02-02T01:36:30.540Z,124.70
2019-02-02T01:39:00.741Z,122.47
2019-02-02T01:41:30.878Z,127.40
2019-02-02T01:44:01.031Z,119.65
2019-02-02T01:46:31.109Z,119.53
2019-02-02T01:49:01.218Z,129.32
2019-02-02T01:51:31.297Z,124.62
2019-02-02T01:54:01.411Z,128.18
2019-02-02T01:56:31.489Z,131.37
2019-02-02T01:59:01.594Z,129.45
2019-02-02T02:01:31.674Z,140.52
2019-02-02T02:04:01.771Z,130.95
2019-02-02T02:06:31.859Z,135.37
2019-02-02T02:09:01.955Z,131.22
2019-02-02T02:11:33.103Z,129.78
2019-02-02T02:14:03.206Z,130.30
2019-02-02T02:16:33.294Z,135.12
2019-02-02T02:19:03.399Z,145.07
2019-02-02T02:21:33.477Z,141.60
2019-02-02T02:24:03.590Z,149.95
2019-02-02T02:26:33.676Z,145.07
2019-02-02T02:29:03.782Z,155.22
2019-02-02T02:31:33.867Z,154.07
2019-02-02T02:34:03.974Z,152.68
2019-02-02T02:36:34.052Z,165.50
2019-02-02T02:39:06.003Z,156.67
2019-02-02T02:41:36.201Z,167.20
2019-02-02T02:44:06.260Z,165.65
2019-02-02T02:46:36.399Z,163.32
2019-02-02T02:49:06.442Z,168.35
2019-02-02T02:51:36.529Z,168.47
2019-02-02T02:54:06.644Z,178.75
2019-02-02T02:56:36.718Z,175.85
2019-02-02T02:59:06.816Z,186.73
2019-02-02T03:01:36.895Z,173.80
2019-02-02T03:04:07.012Z,178.57
2019-02-02T03:06:37.092Z,179.23
2019-02-02T03:09:09.008Z,172.80
2019-02-02T03:11:39.119Z,177.30
2019-02-02T03:14:09.199Z,188.37
2019-02-02T03:16:39.290Z,184.52
2019-02-02T03:19:09.396Z,187.45
2019-02-02T03:21:39.478Z,191.92
2019-02-02T03:24:09.573Z,194.80
2019-02-02T03:26:39.661Z,181.05
2019-02-02T03:29:09.762Z,196.80
2019-02-02T03:31:40.815Z,182.17
2019-02-02T03:34:10.925Z,189.70
2019-02-02T03:36:41.007Z,183.32
2019-02-02T03:39:11.883Z,188.87
2019-02-02T03:41:41.960Z,182.93
2019-02-02T03:44:12.072Z,177.90
2019-02-02T03:46:42.153Z,196.22
2019-02-02T03:49:12.255Z,178.80
2019-02-02T03:51:42.345Z,198.47
2019-02-02T03:54:12.454Z,192.65
2019-02-02T03:56:42.585Z,175.95
2019-02-02T03:59:12.685Z,205.87
2019-02-02T04:01:42.776Z,184.00
2019-02-02T04:04:12.874Z,193.45
2019-02-02T04:06:42.953Z,200.97
2019-02-02T04:09:13.106Z,186.32
2019-02-02T04:11:43.631Z,180.48
2019-02-02T04:14:13.765Z,201.77
2019-02-02T04:16:43.849Z,219.05
2019-02-02T04:19:13.960Z,198.93
2019-02-02T04:21:44.038Z,186.35
2019-02-02T04:24:14.134Z,196.93
2019-02-02T04:26:44.224Z,189.85
2019-02-02T04:29:17.739Z,195.55
2019-02-02T04:31:46.093Z,197.20
2019-02-02T04:34:16.252Z,194.40
2019-02-02T04:36:46.278Z,193.35
2019-02-02T04:39:16.375Z,196.75
2019-02-02T04:41:46.458Z,203.90
2019-02-02T04:44:16.549Z,213.28
2019-02-02T04:46:47.697Z,192.75
2019-02-02T04:49:17.809Z,195.70
2019-02-02T04:51:47.892Z,199.32
2019-02-02T04:54:17.986Z,197.50
2019-02-02T04:56:48.074Z,198.43
2019-02-02T04:59:28.792Z,210.65
2019-02-02T05:01:50.066Z,200.82
2019-02-02T05:04:20.174Z,193.28
2019-02-02T05:06:50.266Z,201.58
2019-02-02T05:09:20.357Z,197.87
2019-02-02T05:11:50.436Z,199.17
2019-02-02T05:14:20.645Z,197.00
2019-02-02T05:16:50.714Z,201.02
2019-02-02T05:19:20.833Z,191.47
2019-02-02T05:21:50.921Z,201.45
2019-02-02T05:24:21.033Z,209.60
2019-02-02T05:26:51.115Z,200.43
2019-02-02T05:29:21.223Z,189.77
2019-02-02T05:31:51.321Z,206.68
2019-02-02T05:34:21.404Z,198.50
2019-02-02T05:36:51.504Z,199.55
2019-02-02T05:39:21.590Z,200.40
2019-02-02T05:41:51.690Z,212.12
2019-02-02T05:44:21.767Z,205.90
2019-02-02T05:46:51.875Z,206.45
2019-02-02T05:49:21.961Z,199.70
2019-02-02T05:51:52.087Z,203.32
2019-02-02T05:54:22.197Z,211.28
2019-02-02T05:56:52.282Z,198.53
2019-02-02T05:59:22.374Z,203.67
2019-02-02T06:01:52.463Z,208.80
2019-02-02T06:04:22.567Z,208.68
2019-02-02T06:06:52.647Z,191.05
2019-02-02T06:09:22.970Z,197.98
2019-02-02T06:11:53.003Z,204.60
2019-02-02T06:14:23.109Z,202.87
2019-02-02T06:16:53.197Z,190.20
2019-02-02T06:19:23.289Z,207.30
2019-02-02T06:21:53.372Z,209.80
2019-02-02T06:24:23.474Z,208.60
2019-02-02T06:26:53.648Z,189.90
2019-02-02T06:29:23.738Z,200.57
2019-02-02T06:31:53.826Z,194.43
2019-02-02T06:34:23.942Z,200.45
2019-02-02T06:36:54.035Z,196.25
2019-02-02T06:39:24.137Z,193.80
2019-02-02T06:41:54.226Z,207.00
2019-02-02T06:44:24.333Z,197.82
2019-02-02T06:46:54.424Z,198.38
2019-02-02T06:49:24.531Z,192.87
2019-02-02T06:51:54.707Z,192.80
2019-02-02T06:54:24.803Z,196.32
2019-02-02T06:56:54.880Z,191.95
2019-02-02T06:59:24.990Z,201.67
2019-02-02T07:01:55.077Z,204.38
2019-02-02T07:04:25.192Z,198.80
2019-02-02T07:06:55.265Z,216.08
2019-02-02T07:09:25.363Z,203.77
2019-02-02T07:11:55.448Z,203.02
2019-02-02T07:14:26.526Z,204.28
2019-02-02T07:16:56.605Z,200.85
2019-02-02T07:19:29.097Z,215.40
2019-02-02T07:21:58.599Z,214.42
2019-02-02T07:24:28.708Z,200.43
2019-02-02T07:26:58.794Z,200.00
2019-02-02T07:29:28.902Z,204.80
2019-02-02T07:31:58.981Z,195.77
2019-02-02T07:34:29.090Z,197.93
2019-02-02T07:36:59.185Z,192.45
2019-02-02T07:39:29.288Z,194.77
2019-02-02T07:41:59.449Z,196.57
2019-02-02T07:44:29.550Z,192.57
2019-02-02T07:46:59.642Z,179.78
2019-02-02T07:49:29.750Z,188.47
2019-02-02T07:51:59.827Z,194.77
2019-02-02T07:54:32.984Z,195.18
2019-02-02T07:57:01.710Z,195.72
2019-02-02T07:59:31.814Z,204.03
2019-02-02T08:02:01.907Z,198.43
2019-02-02T08:04:32.005Z,186.00
2019-02-02T08:07:02.094Z,196.47
2019-02-02T08:09:32.315Z,219.25
2019-02-02T08:12:02.390Z,191.30
2019-02-02T08:14:32.492Z,214.95
2019-02-02T08:17:02.578Z,191.53
2019-02-02T08:19:32.697Z,199.45
2019-02-02T08:22:02.787Z,192.55
2019-02-02T08:24:32.890Z,195.32
2019-02-02T08:27:02.975Z,197.40
2019-02-02T08:29:33.070Z,194.22
2019-02-02T08:32:03.151Z,203.30
2019-02-02T08:34:33.246Z,198.17
2019-02-02T08:37:03.339Z,195.47
2019-02-02T08:39:33.446Z,193.72
2019-02-02T08:42:03.626Z,191.65
2019-02-02T08:44:33.729Z,207.67
2019-02-02T08:47:03.802Z,196.65
2019-02-02T08:49:33.905Z,192.70
2019-02-02T08:52:04.001Z,193.52
2019-02-02T08:54:34.105Z,193.05
2019-02-02T08:57:04.204Z,195.97
2019-02-02T08:59:34.289Z,198.80
2019-02-02T09:02:04.378Z,193.40
2019-02-02T09:04:34.489Z,199.45
2019-02-02T09:07:24.001Z,193.82
2019-02-02T09:09:54.107Z,189.55
2019-02-02T09:12:24.321Z,180.95
2019-02-02T09:14:54.587Z,185.85
2019-02-02T09:17:24.646Z,198.72
2019-02-02T09:19:54.750Z,181.45
2019-02-02T09:22:24.832Z,198.07
2019-02-02T09:24:55.030Z,191.05
2019-02-02T09:27:25.294Z,194.13
2019-02-02T09:29:55.411Z,194.60
2019-02-02T09:32:25.505Z,188.60
2019-02-02T09:34:55.606Z,181.95
2019-02-02T09:37:25.682Z,188.37
2019-02-02T09:39:55.796Z,181.72
2019-02-02T09:42:25.948Z,196.98
2019-02-02T09:44:57.117Z,182.43
2019-02-02T09:47:27.178Z,184.35
2019-02-02T09:49:57.337Z,200.87
2019-02-02T09:52:27.421Z,196.55
2019-02-02T09:54:57.901Z,183.85
2019-02-02T09:57:28.246Z,189.65
2019-02-02T09:59:58.386Z,184.00
2019-02-02T10:02:28.856Z,182.47
2019-02-02T10:04:59.007Z,184.95
2019-02-02T10:07:30.166Z,199.47
2019-02-02T10:10:00.413Z,187.68
2019-02-02T10:12:31.762Z,200.95
2019-02-02T10:15:02.323Z,189.00
2019-02-02T10:17:32.403Z,195.68
2019-02-02T10:20:02.997Z,187.85
2019-02-02T10:22:33.161Z,194.02
2019-02-02T10:25:04.139Z,185.37
2019-02-02T10:27:34.227Z,205.60
2019-02-02T10:30:09.066Z,194.45
2019-02-02T10:32:39.154Z,207.47
2019-02-02T10:35:09.274Z,206.97
2019-02-02T10:37:39.354Z,199.38
2019-02-02T10:40:15.294Z,197.15
2019-02-02T10:42:45.393Z,200.78
2019-02-02T10:45:19.322Z,205.32
2019-02-02T10:47:49.412Z,201.00
2019-02-02T10:50:21.969Z,201.98
2019-02-02T10:52:52.047Z,209.72
2019-02-02T10:55:22.159Z,211.75
2019-02-02T10:57:52.245Z,197.55
2019-02-02T11:00:27.906Z,200.70
2019-02-02T11:02:57.989Z,205.07
2019-02-02T11:05:28.154Z,202.45
2019-02-02T11:07:58.492Z,217.15
2019-02-02T11:10:31.835Z,216.10
2019-02-02T11:13:02.594Z,208.47
2019-02-02T11:15:32.960Z,218.73
2019-02-02T11:18:03.114Z,230.03
2019-02-02T11:20:36.684Z,232.05
2019-02-02T11:23:06.768Z,213.87
2019-02-02T11:25:36.955Z,210.17
2019-02-02T11:28:07.073Z,211.45
2019-02-02T11:30:37.748Z,225.95
2019-02-02T11:33:08.076Z,226.00
2019-02-02T11:35:38.290Z,224.15
2019-02-02T11:38:08.447Z,238.30
2019-02-02T11:40:38.571Z,217.18
2019-02-02T11:43:08.688Z,233.55
2019-02-02T11:45:38.805Z,241.33
2019-02-02T11:48:08.886Z,238.32
2019-02-02T11:50:39.094Z,233.23
2019-02-02T11:53:09.198Z,231.10
2019-02-02T11:55:39.347Z,236.75
2019-02-02T11:58:09.429Z,232.43
2019-02-02T12:00:42.257Z,222.25
2019-02-02T12:03:12.345Z,243.25
2019-02-02T12:05:54.834Z,226.90
2019-02-02T12:08:24.890Z,218.70
2019-02-02T12:10:55.544Z,239.30
2019-02-02T12:13:26.176Z,227.53
2019-02-02T12:15:57.302Z,236.82
2019-02-02T12:18:29.150Z,235.02
2019-02-02T12:21:01.032Z,243.88
2019-02-02T12:23:31.420Z,228.18
2019-02-02T12:26:01.760Z,243.12
2019-02-02T12:28:33.478Z,250.22
2019-02-02T12:31:03.598Z,254.90
2019-02-02T12:33:33.690Z,260.08
2019-02-02T12:36:05.241Z,250.80
2019-02-02T12:38:36.382Z,278.05
2019-02-02T12:41:06.573Z,264.88
2019-02-02T12:43:36.668Z,248.50
2019-02-02T12:46:07.420Z,261.62
2019-02-02T12:48:40.598Z,280.05
2019-02-02T12:51:10.945Z,252.55
2019-02-02T12:53:41.202Z,257.32
2019-02-02T12:56:11.305Z,247.00
2019-02-02T12:58:41.381Z,271.90
2019-02-02T13:01:11.575Z,288.27
2019-02-02T13:03:41.724Z,264.32
2019-02-02T13:06:12.402Z,267.20
2019-02-02T13:08:42.489Z,261.12
2019-02-02T13:11:12.601Z,254.05
2019-02-02T13:13:42.908Z,261.35
2019-02-02T13:16:12.953Z,247.82
2019-02-02T13:18:43.068Z,255.37
2019-02-02T13:21:13.333Z,237.30
2019-02-02T13:23:43.422Z,245.93
2019-02-02T13:26:13.873Z,270.00
2019-02-02T13:28:44.043Z,240.35
2019-02-02T13:31:14.233Z,256.30
2019-02-02T13:33:44.323Z,248.65
2019-02-02T13:36:14.452Z,239.23
2019-02-02T13:38:44.570Z,234.03
2019-02-02T13:41:14.673Z,221.53
2019-02-02T13:43:44.778Z,209.07
2019-02-02T13:46:14.855Z,211.47
2019-02-02T13:48:44.963Z,200.10
2019-02-02T13:51:15.049Z,210.43
2019-02-02T13:53:45.166Z,229.45
2019-02-02T13:56:15.246Z,181.30
2019-02-02T13:58:45.352Z,202.25
2019-02-02T14:01:15.433Z,188.60
2019-02-02T14:03:45.549Z,197.20
2019-02-02T14:06:15.631Z,179.85
2019-02-02T14:08:45.733Z,179.40
2019-02-02T14:11:15.813Z,181.85
2019-02-02T14:13:45.937Z,173.00
2019-02-02T14:16:16.027Z,189.20
2019-02-02T14:18:46.142Z,203.70
2019-02-02T14:21:16.333Z,189.43
2019-02-02T14:23:46.449Z,222.75
2019-02-02T14:26:16.538Z,217.68
2019-02-02T14:28:46.662Z,212.35
2019-02-02T14:31:16.818Z,229.87
2019-02-02T14:33:46.931Z,201.73
2019-02-02T14:36:17.421Z,223.87
2019-02-02T14:38:47.529Z,229.85
2019-02-02T14:41:17.610Z,211.07
2019-02-02T14:43:47.827Z,216.68
2019-02-02T14:46:18.541Z,258.00
2019-02-02T14:48:48.648Z,214.17
2019-02-02T14:51:18.725Z,210.13
2019-02-02T14:53:48.842Z,200.45
2019-02-02T14:56:18.918Z,219.47
2019-02-02T14:58:49.032Z,214.25
2019-02-02T15:01:19.137Z,220.57
2019-02-02T15:03:49.243Z,224.80
2019-02-02T15:06:19.323Z,227.50
2019-02-02T15:08:49.439Z,202.15
2019-02-02T15:11:19.607Z,225.07
2019-02-02T15:13:49.718Z,226.77
2019-02-02T15:16:19.808Z,213.10
2019-02-02T15:18:49.917Z,207.07
2019-02-02T15:21:20.013Z,206.40
2019-02-02T15:23:50.119Z,205.75
2019-02-02T15:26:20.194Z,222.40
2019-02-02T15:28:50.303Z,223.47
2019-02-02T15:31:20.758Z,207.77
2019-02-02T15:33:50.870Z,221.70
2019-02-02T15:36:20.950Z,194.90
2019-02-02T15:38:51.059Z,205.37
2019-02-02T15:41:21.151Z,197.62
2019-02-02T15:43:51.266Z,200.55
2019-02-02T15:46:21.398Z,197.20
2019-02-02T15:48:51.513Z,202.55
2019-02-02T15:51:21.598Z,197.20
2019-02-02T15:53:51.715Z,201.18
2019-02-02T15:56:21.797Z,202.10
2019-02-02T15:58:51.901Z,219.20
2019-02-02T16:01:21.981Z,216.00
2019-02-02T16:03:52.090Z,219.25
2019-02-02T16:06:22.171Z,212.08
2019-02-02T16:08:52.270Z,176.30
2019-02-02T16:11:22.364Z,200.22
2019-02-02T16:13:52.474Z,190.03
2019-02-02T16:16:22.558Z,201.52
2019-02-02T16:18:52.663Z,200.05
2019-02-02T16:21:22.753Z,187.07
2019-02-02T16:23:52.858Z,191.00
2019-02-02T16:26:22.937Z,184.63
2019-02-02T16:28:53.051Z,194.35
2019-02-02T16:31:23.137Z,178.97
2019-02-02T16:34:01.566Z,180.35
2019-02-02T16:36:25.090Z,177.97
2019-02-02T16:38:55.206Z,185.40
2019-02-02T16:41:25.279Z,177.35
2019-02-02T16:43:55.391Z,187.62
2019-02-02T16:46:25.529Z,181.60
2019-02-02T16:48:56.593Z,184.40
2019-02-02T16:51:26.671Z,192.07
2019-02-02T16:53:56.781Z,188.78
2019-02-02T16:56:26.867Z,175.90
2019-02-02T16:58:56.981Z,178.80
2019-02-02T17:01:27.086Z,192.72
2019-02-02T17:03:57.252Z,180.67
2019-02-02T17:06:27.342Z,177.07
2019-02-02T17:08:59.447Z,199.62
2019-02-02T17:11:30.590Z,194.95
2019-02-02T17:14:01.022Z,177.53
2019-02-02T17:16:31.213Z,185.67
2019-02-02T17:19:01.358Z,177.87
2019-02-02T17:21:31.536Z,179.07
2019-02-02T17:24:01.660Z,187.97
2019-02-02T17:26:31.743Z,187.05
2019-02-02T17:29:01.876Z,186.55
2019-02-02T17:31:31.955Z,192.85
2019-02-02T17:34:02.077Z,183.78
2019-02-02T17:36:32.207Z,175.42
2019-02-02T17:39:02.334Z,174.80
2019-02-02T17:41:33.862Z,178.30
2019-02-02T17:44:03.985Z,172.60
2019-02-02T17:46:34.116Z,189.93
2019-02-02T17:49:04.231Z,180.78
2019-02-02T17:51:34.310Z,179.60
2019-02-02T17:54:04.412Z,171.93
2019-02-02T17:56:53.928Z,163.97
2019-02-02T17:59:24.285Z,167.50
2019-02-02T18:01:54.611Z,181.65
2019-02-02T18:04:26.601Z,173.30
2019-02-02T18:06:56.975Z,171.80
2019-02-02T18:09:27.096Z,174.62
2019-02-02T18:11:57.199Z,166.22
2019-02-02T18:14:28.190Z,167.47
2019-02-02T18:16:58.270Z,167.95
2019-02-02T18:19:28.381Z,165.32
2019-02-02T18:21:58.458Z,163.92
2019-02-02T18:24:28.581Z,157.97
2019-02-02T18:26:58.691Z,164.97
2019-02-02T18:29:28.778Z,153.93
2019-02-02T18:31:58.886Z,153.45
2019-02-02T18:34:28.966Z,161.82
2019-02-02T18:36:59.070Z,158.55
2019-02-02T18:39:29.158Z,157.40
2019-02-02T18:41:59.266Z,182.65
2019-02-02T18:44:29.356Z,144.47
2019-02-02T18:46:59.474Z,140.28
2019-02-02T18:49:29.557Z,140.22
2019-02-02T18:51:59.687Z,142.07
2019-02-02T18:54:29.756Z,143.10
2019-02-02T18:56:59.880Z,136.03
2019-02-02T18:59:42.356Z,139.80
2019-02-02T19:02:12.478Z,141.15
2019-02-02T19:04:42.582Z,144.17
2019-02-02T19:07:12.715Z,138.00
2019-02-02T19:09:42.827Z,142.05
2019-02-02T19:12:13.482Z,141.70
2019-02-02T19:14:43.755Z,131.82
2019-02-02T19:17:13.938Z,142.45
2019-02-02T19:19:44.694Z,141.85
2019-02-02T19:22:14.871Z,133.78
2019-02-02T19:24:44.962Z,139.07
2019-02-02T19:27:15.070Z,137.45
2019-02-02T19:29:45.164Z,126.38
2019-02-02T19:32:15.266Z,125.67
2019-02-02T19:34:45.344Z,127.92
2019-02-02T19:37:15.458Z,131.97
2019-02-02T19:39:46.539Z,130.50
2019-02-02T19:42:17.343Z,130.20
2019-02-02T19:44:48.120Z,125.12
2019-02-02T19:47:18.838Z,126.20
2019-02-02T19:49:49.486Z,123.75
2019-02-02T19:52:20.371Z,122.37
2019-02-02T19:54:50.951Z,128.25
2019-02-02T19:57:21.685Z,127.70
2019-02-02T19:59:52.421Z,123.97
2019-02-02T20:02:23.862Z,119.87
2019-02-02T20:04:54.391Z,124.05
2019-02-02T20:07:24.651Z,129.03
2019-02-02T20:09:54.806Z,122.58
2019-02-02T20:12:24.910Z,130.75
2019-02-02T20:14:55.000Z,138.80
2019-02-02T20:17:26.120Z,141.18
2019-02-02T20:19:56.846Z,147.07
2019-02-02T20:22:46.951Z,152.85
2019-02-02T20:25:20.535Z,145.45
2019-02-02T20:27:55.283Z,160.15
2019-02-02T20:30:29.316Z,155.22
2019-02-02T20:32:59.520Z,167.98
2019-02-02T20:35:40.357Z,170.28
2019-02-02T20:38:01.776Z,181.35
2019-02-02T20:40:33.749Z,175.75
2019-02-02T20:43:04.799Z,185.88
2019-02-02T20:45:40.548Z,191.65
2019-02-02T20:51:06.701Z,195.75
2019-02-02T20:53:49.537Z,193.02
2019-02-02T20:56:20.335Z,203.67
2019-02-02T20:58:51.070Z,195.25
2019-02-02T21:01:21.891Z,205.07
2019-02-02T21:04:13.471Z,211.32
2019-02-02T21:06:44.359Z,207.72
2019-02-02T21:09:15.297Z,202.35
2019-02-02T21:11:56.711Z,205.37
2019-02-02T21:14:18.338Z,204.25
2019-02-02T21:16:50.682Z,215.40
2019-02-02T21:19:21.006Z,213.30
2019-02-02T21:21:51.193Z,202.18
2019-02-02T21:24:21.279Z,213.03
2019-02-02T21:29:34.390Z,201.58
2019-02-02T21:32:05.337Z,184.50
2019-02-02T21:34:35.992Z,185.95
2019-02-02T21:37:07.004Z,193.62
2019-02-02T21:39:37.403Z,174.60
2019-02-02T21:42:08.143Z,185.70
2019-02-02T21:44:43.369Z,167.85
2019-02-02T21:47:11.368Z,167.85
2019-02-02T21:49:42.210Z,176.10
2019-02-02T21:52:13.034Z,168.93
2019-02-02T21:54:43.617Z,154.85
2019-02-02T21:57:13.733Z,140.00
2019-02-02T21:59:43.823Z,134.57
2019-02-02T22:02:13.969Z,128.85
2019-02-02T22:04:44.055Z,130.12
2019-02-02T22:07:14.542Z,116.95
2019-02-02T22:10:06.464Z,132.67
2019-02-02T22:12:36.564Z,116.70
2019-02-02T22:15:17.260Z,107.15
2019-02-02T22:17:46.152Z,104.53
2019-02-02T22:20:19.152Z,91.60
2019-02-02T22:22:49.258Z,84.15
2019-02-02T22:25:22.805Z,81.92
2019-02-02T22:27:53.183Z,86.75
2019-02-02T22:30:35.995Z,80.42
2019-02-02T22:33:06.340Z,68.83
2019-02-02T22:35:36.417Z,65.90
2019-02-02T22:38:06.518Z,63.63
2019-02-02T22:40:36.606Z,64.05
2019-02-02T22:43:06.918Z,54.03
2019-02-02T22:45:37.133Z,55.10
2019-02-02T22:48:07.432Z,50.45
2019-02-02T22:50:37.534Z,57.35
2019-02-02T22:53:07.609Z,55.65
2019-02-02T22:55:37.803Z,53.65
2019-02-02T22:58:07.893Z,57.20
2019-02-02T23:00:56.457Z,60.90
2019-02-02T23:03:43.182Z,71.82
2019-02-02T23:06:39.514Z,87.20
2019-02-02T23:09:43.906Z,92.60
2019-02-02T23:12:47.429Z,100.22
2019-02-02T23:15:37.023Z,100.97
2019-02-02T23:18:07.193Z,123.90
2019-02-02T23:20:37.285Z,113.30
2019-02-02T23:23:07.506Z,115.42
2019-02-02T23:25:37.688Z,108.22
2019-02-02T23:28:20.393Z,110.65
2019-02-02T23:30:50.471Z,117.25
2019-02-02T23:33:20.655Z,119.30
2019-02-02T23:35:50.740Z,119.62
2019-02-02T23:38:20.842Z,120.82
2019-02-02T23:40:50.922Z,123.30
2019-02-02T23:43:21.117Z,127.25
2019-02-02T23:45:51.207Z,131.05
2019-02-02T23:48:21.320Z,122.35
2019-02-02T23:50:51.404Z,130.12
2019-02-02T23:53:21.630Z,135.32
2019-02-02T23:55:51.720Z,148.43
2019-02-02T23:58:21.863Z,123.28
